Time;durP1;ratioP1;P1;durP2;ratioP2;P2;SDS_P1;SDS_P2;PMS_P1;PMS_P2;Temp;Humidity;BMP_temperature;BMP_pressure;BME280_temperature;BME280_humidity;BME280_pressure;Samples;Min_cycle;Max_cycle;Signal;HPM_P1;HPM_P2
2022/06/25 00:00:32;;;;;;;2.47;0.65;;;;;;;;;;5046608;28;20037;-86
2022/06/25 00:03:18;;;;;;;1.90;0.60;;;;;;;;;;5033372;28;20121;-86
2022/06/25 00:06:05;;;;;;;1.80;0.90;;;;;;;;;;5034359;28;20043;-86
2022/06/25 00:08:52;;;;;;;3.13;0.90;;;;;;;;;;5033624;28;20056;-86
2022/06/25 00:14:45;;;;;;;2.08;0.77;;;;;;;;;;5051276;28;20051;-85
2022/06/25 00:17:34;;;;;;;2.95;0.70;;;;;;;;;;5045268;28;20037;-86
2022/06/25 00:20:21;;;;;;;1.95;0.90;;;;;;;;;;5045325;28;20036;-87
2022/06/25 00:23:09;;;;;;;1.73;0.90;;;;;;;;;;5046413;28;20051;-85
2022/06/25 00:25:57;;;;;;;2.08;0.80;;;;;;;;;;5046013;28;20123;-86
2022/06/25 00:28:44;;;;;;;1.55;0.70;;;;;;;;;;5033195;28;20048;-86
2022/06/25 00:31:31;;;;;;;2.22;1.00;;;;;;;;;;5033079;28;20033;-85
2022/06/25 00:34:17;;;;;;;1.35;0.50;;;;;;;;;;5033005;28;20048;-87
2022/06/25 00:37:04;;;;;;;2.42;0.95;;;;;;;;;;5035876;28;20570;-86
2022/06/25 00:39:50;;;;;;;3.20;1.10;;;;;;;;;;5030887;28;20072;-85
2022/06/25 00:42:36;;;;;;;1.08;0.50;;;;;;;;;;5031873;28;20039;-86
2022/06/25 00:45:23;;;;;;;0.80;0.57;;;;;;;;;;5032713;28;20051;-86
2022/06/25 00:48:12;;;;;;;1.20;0.40;;;;;;;;;;5032286;28;20036;-86
2022/06/25 00:51:01;;;;;;;1.65;0.70;;;;;;;;;;5045661;28;20419;-86
2022/06/25 00:53:46;;;;;;;3.05;1.02;;;;;;;;;;5031020;28;20102;-85
2022/06/25 00:56:36;;;;;;;1.38;0.82;;;;;;;;;;5032630;28;20036;-86
2022/06/25 00:59:27;;;;;;;1.35;0.63;;;;;;;;;;5031650;28;20047;-86
2022/06/25 01:02:14;;;;;;;2.35;0.90;;;;;;;;;;5031791;28;20036;-87
2022/06/25 01:05:07;;;;;;;1.65;0.60;;;;;;;;;;5031454;28;20044;-86
2022/06/25 01:07:52;;;;;;;1.58;0.85;;;;;;;;;;5031311;28;20040;-87
2022/06/25 01:10:38;;;;;;;1.95;0.60;;;;;;;;;;5031837;28;20047;-88
2022/06/25 01:13:26;;;;;;;1.25;0.43;;;;;;;;;;5044261;28;20032;-87
2022/06/25 01:16:12;;;;;;;1.15;0.50;;;;;;;;;;5048966;28;20028;-87
2022/06/25 01:18:59;;;;;;;1.33;0.60;;;;;;;;;;5049736;28;20036;-85
2022/06/25 01:21:44;;;;;;;1.13;0.50;;;;;;;;;;5049618;28;20161;-85
2022/06/25 01:24:32;;;;;;;2.90;0.55;;;;;;;;;;5052192;28;20040;-86
2022/06/25 01:27:17;;;;;;;1.48;0.82;;;;;;;;;;5050983;28;20082;-87
2022/06/25 01:30:06;;;;;;;1.30;0.70;;;;;;;;;;5049698;28;20054;-87
2022/06/25 01:32:52;;;;;;;1.77;0.40;;;;;;;;;;5051029;28;20514;-85
2022/06/25 01:35:39;;;;;;;1.27;0.40;;;;;;;;;;5050808;28;20032;-87
2022/06/25 01:38:31;;;;;;;1.77;0.60;;;;;;;;;;5049644;28;20071;-86
2022/06/25 01:41:17;;;;;;;1.45;0.40;;;;;;;;;;5050752;28;20058;-86
2022/06/25 01:44:03;;;;;;;1.98;0.60;;;;;;;;;;5050858;28;20074;-87
2022/06/25 01:46:50;;;;;;;1.30;0.50;;;;;;;;;;5048695;28;20094;-86
2022/06/25 01:49:36;;;;;;;2.03;0.70;;;;;;;;;;5051499;28;20039;-87
2022/06/25 01:52:23;;;;;;;1.98;0.75;;;;;;;;;;5050067;28;20043;-86
2022/06/25 01:55:10;;;;;;;1.02;0.55;;;;;;;;;;5044645;28;20033;-87
2022/06/25 01:57:56;;;;;;;1.73;0.73;;;;;;;;;;5043599;28;20039;-86
2022/06/25 02:00:43;;;;;;;1.80;0.77;;;;;;;;;;5042975;28;20117;-85
2022/06/25 02:03:28;;;;;;;2.47;0.60;;;;;;;;;;5043000;28;20036;-86
2022/06/25 02:06:14;;;;;;;1.38;0.60;;;;;;;;;;5042682;28;20048;-86
2022/06/25 02:09:00;;;;;;;1.45;0.63;;;;;;;;;;5042874;28;20032;-85
2022/06/25 02:11:47;;;;;;;1.95;0.65;;;;;;;;;;5043295;28;20035;-86
2022/06/25 02:14:32;;;;;;;1.23;0.57;;;;;;;;;;5042876;28;20040;-85
2022/06/25 02:17:21;;;;;;;0.57;0.30;;;;;;;;;;5042919;28;20049;-86
2022/06/25 02:20:08;;;;;;;0.70;0.30;;;;;;;;;;5043459;28;20047;-86
2022/06/25 02:22:55;;;;;;;1.20;0.60;;;;;;;;;;5042530;28;20033;-86
2022/06/25 02:25:41;;;;;;;0.82;0.50;;;;;;;;;;5042448;28;20037;-86
2022/06/25 02:28:28;;;;;;;1.23;0.47;;;;;;;;;;5043099;28;20055;-85
2022/06/25 02:31:15;;;;;;;0.90;0.57;;;;;;;;;;5043036;28;20037;-85
2022/06/25 02:34:02;;;;;;;1.23;0.73;;;;;;;;;;5042907;28;20048;-85
2022/06/25 02:36:50;;;;;;;3.83;0.70;;;;;;;;;;5043087;28;20089;-85
2022/06/25 02:39:37;;;;;;;1.25;0.47;;;;;;;;;;5043259;28;20423;-86
2022/06/25 02:42:35;;;;;;;3.03;0.80;;;;;;;;;;5043744;28;20564;-86
2022/06/25 02:45:22;;;;;;;1.05;0.50;;;;;;;;;;5042523;28;20052;-85
2022/06/25 02:48:07;;;;;;;1.75;0.63;;;;;;;;;;5042366;28;20040;-86
2022/06/25 02:50:53;;;;;;;1.40;0.40;;;;;;;;;;5042581;28;20119;-85
2022/06/25 02:53:40;;;;;;;1.00;0.35;;;;;;;;;;5042138;28;20119;-86
2022/06/25 02:59:31;;;;;;;1.10;0.55;;;;;;;;;;5062751;28;20411;-86
2022/06/25 03:02:18;;;;;;;0.93;0.30;;;;;;;;;;5048195;28;20037;-86
2022/06/25 03:05:04;;;;;;;3.20;0.60;;;;;;;;;;5048316;28;20048;-86
2022/06/25 03:07:50;;;;;;;3.33;0.50;;;;;;;;;;5046665;28;20032;-86
2022/06/25 03:10:35;;;;;;;1.00;0.50;;;;;;;;;;5046806;28;20037;-86
2022/06/25 03:13:22;;;;;;;2.13;0.50;;;;;;;;;;5046404;28;20157;-87
2022/06/25 03:16:09;;;;;;;0.98;0.50;;;;;;;;;;5045844;28;20091;-85
2022/06/25 03:18:56;;;;;;;3.90;0.60;;;;;;;;;;5046478;28;20041;-85
2022/06/25 03:21:41;;;;;;;2.35;0.82;;;;;;;;;;5048065;28;20045;-85
2022/06/25 03:24:28;;;;;;;0.90;0.38;;;;;;;;;;5047842;28;20050;-85
2022/06/25 03:27:16;;;;;;;2.00;0.47;;;;;;;;;;5046071;28;20037;-86
2022/06/25 03:30:04;;;;;;;1.17;0.70;;;;;;;;;;5046483;28;20537;-86
2022/06/25 03:32:49;;;;;;;1.13;0.40;;;;;;;;;;5046584;28;20043;-85
2022/06/25 03:35:36;;;;;;;1.52;0.70;;;;;;;;;;5047699;28;20036;-85
2022/06/25 03:38:23;;;;;;;1.65;0.63;;;;;;;;;;5045813;28;20514;-86
2022/06/25 03:44:14;;;;;;;1.63;0.40;;;;;;;;;;5062186;28;20486;-85
2022/06/25 03:47:01;;;;;;;1.33;0.60;;;;;;;;;;5051744;28;20421;-86
2022/06/25 03:49:48;;;;;;;1.52;0.63;;;;;;;;;;5052643;28;20040;-85
2022/06/25 03:52:33;;;;;;;1.52;0.52;;;;;;;;;;5052590;28;20044;-86
2022/06/25 03:55:19;;;;;;;1.15;0.45;;;;;;;;;;5051940;28;20447;-85
2022/06/25 03:58:05;;;;;;;1.48;0.70;;;;;;;;;;5051282;28;20036;-86
2022/06/25 04:00:51;;;;;;;0.95;0.43;;;;;;;;;;5050976;28;20036;-86
2022/06/25 04:03:38;;;;;;;1.10;0.50;;;;;;;;;;5053386;28;20040;-84
2022/06/25 04:06:23;;;;;;;1.48;0.60;;;;;;;;;;5051398;28;20498;-86
2022/06/25 04:09:10;;;;;;;1.58;0.70;;;;;;;;;;5050721;28;20071;-86
2022/06/25 04:11:56;;;;;;;2.85;0.98;;;;;;;;;;5052459;28;20037;-85
2022/06/25 04:14:44;;;;;;;1.70;0.75;;;;;;;;;;5051737;28;20426;-85
2022/06/25 04:17:32;;;;;;;2.58;0.70;;;;;;;;;;5065343;28;20553;-86
2022/06/25 04:20:17;;;;;;;1.15;0.50;;;;;;;;;;5051194;28;20036;-86
2022/06/25 04:23:04;;;;;;;2.25;0.70;;;;;;;;;;5050924;28;20104;-86
2022/06/25 04:25:50;;;;;;;4.05;1.40;;;;;;;;;;5051865;28;20056;-85
2022/06/25 04:31:42;;;;;;;1.08;0.40;;;;;;;;;;5070702;28;20039;-86
2022/06/25 04:34:28;;;;;;;2.42;0.95;;;;;;;;;;5065234;28;20422;-86
2022/06/25 04:37:14;;;;;;;1.20;0.70;;;;;;;;;;5050781;28;20033;-86
2022/06/25 04:39:59;;;;;;;1.23;0.50;;;;;;;;;;5051731;28;20047;-87
2022/06/25 04:42:46;;;;;;;2.78;0.70;;;;;;;;;;5030650;28;20028;-86
2022/06/25 04:45:33;;;;;;;1.70;0.60;;;;;;;;;;5030261;28;20056;-87
2022/06/25 04:48:19;;;;;;;1.20;0.57;;;;;;;;;;5032214;28;20116;-86
2022/06/25 04:51:07;;;;;;;2.10;0.70;;;;;;;;;;5030277;28;20049;-87
2022/06/25 04:53:56;;;;;;;1.40;0.55;;;;;;;;;;5032139;28;20039;-87
2022/06/25 04:56:42;;;;;;;1.20;0.60;;;;;;;;;;5030775;28;20044;-86
2022/06/25 04:59:29;;;;;;;1.92;0.50;;;;;;;;;;5029615;28;20032;-87
2022/06/25 05:02:15;;;;;;;1.58;0.65;;;;;;;;;;5031628;28;20512;-87
2022/06/25 05:05:04;;;;;;;1.83;0.60;;;;;;;;;;5030407;28;20033;-87
2022/06/25 05:07:50;;;;;;;2.08;0.40;;;;;;;;;;5031419;28;20040;-86
2022/06/25 05:10:36;;;;;;;1.17;0.60;;;;;;;;;;5030701;28;20503;-84
2022/06/25 05:13:21;;;;;;;1.52;0.43;;;;;;;;;;5029271;28;20063;-84
2022/06/25 05:16:07;;;;;;;6.75;0.95;;;;;;;;;;5028880;28;20048;-83
2022/06/25 05:18:54;;;;;;;3.58;1.10;;;;;;;;;;5031995;28;20045;-88
2022/06/25 05:21:40;;;;;;;3.33;1.10;;;;;;;;;;5029053;28;20040;-86
2022/06/25 05:24:26;;;;;;;3.33;0.85;;;;;;;;;;5030047;28;20037;-85
2022/06/25 05:27:12;;;;;;;4.78;0.70;;;;;;;;;;5029705;28;20045;-86
2022/06/25 05:29:58;;;;;;;3.03;0.73;;;;;;;;;;5044432;28;20123;-86
2022/06/25 05:32:45;;;;;;;4.70;0.63;;;;;;;;;;5039832;28;20039;-84
2022/06/25 05:35:31;;;;;;;9.68;2.00;;;;;;;;;;5049311;28;20032;-81
2022/06/25 05:37:57;;;;;;;5.30;0.82;;;;;;;;;;5024746;28;20036;-81
2022/06/25 05:40:22;;;;;;;3.95;0.60;;;;;;;;;;5022536;28;20043;-82
2022/06/25 05:42:48;;;;;;;5.25;1.13;;;;;;;;;;5024533;28;20028;-82
2022/06/25 05:45:13;;;;;;;4.53;0.80;;;;;;;;;;5037470;28;20049;-81
2022/06/25 05:47:39;;;;;;;8.18;1.02;;;;;;;;;;5004980;28;20036;-82
2022/06/25 05:50:04;;;;;;;3.47;0.70;;;;;;;;;;5021554;28;20464;-84
2022/06/25 05:52:30;;;;;;;2.83;0.90;;;;;;;;;;5006457;28;20021;-84
2022/06/25 05:54:55;;;;;;;3.97;0.70;;;;;;;;;;5031135;28;20044;-83
2022/06/25 05:57:21;;;;;;;7.43;0.88;;;;;;;;;;5017175;28;20025;-83
2022/06/25 05:59:46;;;;;;;3.17;1.13;;;;;;;;;;5004728;28;20063;-83
2022/06/25 06:02:12;;;;;;;6.15;1.02;;;;;;;;;;5024282;28;20063;-82
2022/06/25 06:04:37;;;;;;;2.30;0.90;;;;;;;;;;5040985;28;20130;-83
2022/06/25 06:07:04;;;;;;;2.70;0.73;;;;;;;;;;5057423;28;20106;-83
2022/06/25 06:09:31;;;;;;;3.90;0.80;;;;;;;;;;5023469;28;20494;-82
2022/06/25 06:11:57;;;;;;;2.28;0.80;;;;;;;;;;5037777;28;20072;-82
2022/06/25 06:14:22;;;;;;;8.93;0.95;;;;;;;;;;5037118;28;20044;-82
2022/06/25 06:16:48;;;;;;;4.90;1.27;;;;;;;;;;5020960;28;20036;-82
2022/06/25 06:19:13;;;;;;;3.10;1.00;;;;;;;;;;5037785;28;20127;-82
2022/06/25 06:21:39;;;;;;;3.92;1.20;;;;;;;;;;5020739;28;20028;-83
2022/06/25 06:24:04;;;;;;;5.75;0.90;;;;;;;;;;5037105;28;20036;-82
2022/06/25 06:26:30;;;;;;;7.38;1.27;;;;;;;;;;5021232;28;20528;-82
2022/06/25 06:28:55;;;;;;;2.50;0.80;;;;;;;;;;5004241;28;20042;-82
2022/06/25 06:31:20;;;;;;;3.28;0.90;;;;;;;;;;5020577;28;20032;-82
2022/06/25 06:33:46;;;;;;;2.78;0.77;;;;;;;;;;5020077;28;20050;-83
2022/06/25 06:36:12;;;;;;;6.13;0.95;;;;;;;;;;5020415;28;20033;-82
2022/06/25 06:38:38;;;;;;;5.78;1.10;;;;;;;;;;5054210;28;20115;-82
2022/06/25 06:41:04;;;;;;;3.47;0.88;;;;;;;;;;5004194;28;20034;-83
2022/06/25 06:43:32;;;;;;;5.30;1.15;;;;;;;;;;5020714;28;20032;-83
2022/06/25 06:45:58;;;;;;;4.70;1.25;;;;;;;;;;5034923;28;20430;-83
2022/06/25 06:48:23;;;;;;;5.47;1.08;;;;;;;;;;5053373;28;20040;-83
2022/06/25 06:50:49;;;;;;;3.22;0.70;;;;;;;;;;5036788;28;20082;-83
2022/06/25 06:53:14;;;;;;;3.17;0.80;;;;;;;;;;5036940;28;20036;-84
2022/06/25 06:55:40;;;;;;;5.43;0.90;;;;;;;;;;5053130;28;20111;-83
2022/06/25 06:58:05;;;;;;;2.80;0.75;;;;;;;;;;5053466;28;20036;-83
2022/06/25 07:00:30;;;;;;;2.33;0.93;;;;;;;;;;5046996;28;20074;-83
2022/06/25 07:02:56;;;;;;;2.83;0.70;;;;;;;;;;5036894;28;20473;-83
2022/06/25 07:05:21;;;;;;;5.57;1.95;;;;;;;;;;5053323;28;20047;-83
2022/06/25 07:07:49;;;;;;;8.27;3.05;;;;;;;;;;5036613;28;20040;-83
2022/06/25 07:10:15;;;;;;;4.40;2.50;;;;;;;;;;5052967;28;20093;-83
2022/06/25 07:12:40;;;;;;;9.85;4.50;;;;;;;;;;5053549;28;20412;-84
2022/06/25 07:15:06;;;;;;;11.90;6.07;;;;;;;;;;5036726;28;21159;-84
2022/06/25 07:17:32;;;;;;;10.95;5.57;;;;;;;;;;5036755;28;20044;-82
2022/06/25 07:19:58;;;;;;;8.68;4.07;;;;;;;;;;5036679;28;20025;-82
2022/06/25 07:22:23;;;;;;;4.05;1.92;;;;;;;;;;5036868;28;20036;-83
2022/06/25 07:24:49;;;;;;;3.53;0.90;;;;;;;;;;5036722;28;20498;-83
2022/06/25 07:27:14;;;;;;;6.13;1.45;;;;;;;;;;5036323;28;20031;-83
2022/06/25 07:29:39;;;;;;;2.45;1.02;;;;;;;;;;5047755;28;20498;-82
2022/06/25 07:32:05;;;;;;;5.28;0.98;;;;;;;;;;5039589;28;20051;-83
2022/06/25 07:34:31;;;;;;;7.43;1.20;;;;;;;;;;5056790;28;20032;-84
2022/06/25 07:36:56;;;;;;;4.90;0.90;;;;;;;;;;5023761;28;20040;-85
2022/06/25 07:39:21;;;;;;;5.93;1.30;;;;;;;;;;5040063;28;20482;-85
2022/06/25 07:41:47;;;;;;;4.82;1.13;;;;;;;;;;5023559;28;20089;-84
2022/06/25 07:44:12;;;;;;;4.25;0.90;;;;;;;;;;5036635;28;20039;-83
2022/06/25 07:46:39;;;;;;;4.93;1.13;;;;;;;;;;5023045;28;20033;-83
2022/06/25 07:49:05;;;;;;;4.90;0.93;;;;;;;;;;5023904;28;20119;-84
2022/06/25 07:54:14;;;;;;;4.38;1.33;;;;;;;;;;5044951;28;20033;-84
2022/06/25 07:56:39;;;;;;;3.53;0.80;;;;;;;;;;5039643;28;20094;-83
2022/06/25 07:59:05;;;;;;;2.15;0.80;;;;;;;;;;5040071;28;20028;-84
2022/06/25 08:01:30;;;;;;;3.88;1.17;;;;;;;;;;5039495;28;20036;-83
2022/06/25 08:03:59;;;;;;;4.50;0.70;;;;;;;;;;5056754;28;20062;-84
2022/06/25 08:06:24;;;;;;;2.63;1.15;;;;;;;;;;5039633;28;20132;-84
2022/06/25 08:08:50;;;;;;;3.67;0.93;;;;;;;;;;5056213;28;20036;-83
2022/06/25 08:11:23;;;;;;;4.07;0.57;;;;;;;;;;5039703;28;20402;-83
2022/06/25 08:13:49;;;;;;;2.47;0.50;;;;;;;;;;5022104;28;20127;-84
2022/06/25 08:16:14;;;;;;;2.45;0.70;;;;;;;;;;5022699;28;20124;-83
2022/06/25 08:18:46;;;;;;;2.67;0.95;;;;;;;;;;5055948;28;20068;-84
2022/06/25 08:21:15;;;;;;;2.65;0.60;;;;;;;;;;5037916;28;20142;-84
2022/06/25 08:23:40;;;;;;;3.67;0.85;;;;;;;;;;5039574;28;20037;-83
2022/06/25 08:26:06;;;;;;;1.80;0.60;;;;;;;;;;5039275;28;20028;-84
2022/06/25 08:28:31;;;;;;;2.50;0.75;;;;;;;;;;5039055;28;20570;-84
2022/06/25 08:30:57;;;;;;;3.50;0.77;;;;;;;;;;5022390;28;20032;-84
2022/06/25 08:33:23;;;;;;;3.63;0.60;;;;;;;;;;5039213;28;20445;-85
2022/06/25 08:35:48;;;;;;;3.08;0.70;;;;;;;;;;5022421;28;20036;-84
2022/06/25 08:38:14;;;;;;;3.42;0.80;;;;;;;;;;5039135;28;20028;-84
2022/06/25 08:40:42;;;;;;;3.03;0.60;;;;;;;;;;5023503;28;20044;-84
2022/06/25 08:43:08;;;;;;;1.38;0.63;;;;;;;;;;5022424;28;20411;-84
2022/06/25 08:45:33;;;;;;;2.50;0.55;;;;;;;;;;5022216;28;20044;-84
2022/06/25 08:47:59;;;;;;;2.70;0.50;;;;;;;;;;5022440;28;20032;-84
2022/06/25 08:50:25;;;;;;;2.20;0.55;;;;;;;;;;5038899;28;20486;-84
2022/06/25 08:52:52;;;;;;;2.13;0.75;;;;;;;;;;5055513;28;20042;-84
2022/06/25 08:55:29;;;;;;;2.40;0.68;;;;;;;;;;5055754;28;20041;-84
2022/06/25 08:57:55;;;;;;;1.05;0.43;;;;;;;;;;5038797;28;20510;-84
2022/06/25 09:00:20;;;;;;;1.67;0.45;;;;;;;;;;5038342;28;20082;-84
2022/06/25 09:02:45;;;;;;;3.17;1.08;;;;;;;;;;5039185;28;20028;-85
2022/06/25 09:05:11;;;;;;;2.17;0.70;;;;;;;;;;5021878;28;20038;-85
2022/06/25 09:07:36;;;;;;;2.15;0.77;;;;;;;;;;5038860;28;20050;-85
2022/06/25 09:10:02;;;;;;;1.58;0.57;;;;;;;;;;5045161;28;20044;-85
2022/06/25 09:12:27;;;;;;;3.92;0.90;;;;;;;;;;5022777;28;20033;-87
2022/06/25 09:14:53;;;;;;;4.20;0.85;;;;;;;;;;5039397;28;20060;-88
2022/06/25 09:17:18;;;;;;;2.60;0.95;;;;;;;;;;5022766;28;20033;-87
2022/06/25 09:19:44;;;;;;;2.00;0.93;;;;;;;;;;5022078;28;20041;-86
2022/06/25 09:22:11;;;;;;;3.42;0.70;;;;;;;;;;5039166;28;20029;-87
2022/06/25 09:24:44;;;;;;;1.48;0.60;;;;;;;;;;5055622;28;20028;-87
2022/06/25 09:27:10;;;;;;;4.05;1.48;;;;;;;;;;5055315;28;20074;-88
2022/06/25 09:29:43;;;;;;;2.35;0.73;;;;;;;;;;5022067;28;20029;-87
2022/06/25 09:32:08;;;;;;;2.97;0.70;;;;;;;;;;5022600;28;20839;-87
2022/06/25 09:34:34;;;;;;;7.07;1.02;;;;;;;;;;5038610;28;20032;-88
2022/06/25 09:37:24;;;;;;;1.33;0.50;;;;;;;;;;5055208;28;20028;-88
2022/06/25 09:39:50;;;;;;;6.53;3.00;;;;;;;;;;5029613;28;20491;-88
2022/06/25 09:42:28;;;;;;;12.43;7.25;;;;;;;;;;5038774;28;20471;-87
2022/06/25 09:45:20;;;;;;;18.85;9.23;;;;;;;;;;5022054;28;20474;-89
2022/06/25 09:47:45;;;;;;;10.98;5.75;;;;;;;;;;5019310;28;20045;-88
2022/06/25 09:50:18;;;;;;;5.72;1.58;;;;;;;;;;5021874;28;20471;-88
2022/06/25 09:52:51;;;;;;;2.85;0.98;;;;;;;;;;5026153;28;20123;-87
2022/06/25 09:55:17;;;;;;;3.75;0.98;;;;;;;;;;5041643;28;20043;-88
2022/06/25 09:57:43;;;;;;;1.80;0.57;;;;;;;;;;5041534;28;20398;-86
2022/06/25 10:00:10;;;;;;;2.85;0.70;;;;;;;;;;5039295;28;20082;-83
2022/06/25 10:02:36;;;;;;;2.13;0.98;;;;;;;;;;5021256;28;20024;-84
2022/06/25 10:05:02;;;;;;;3.13;0.77;;;;;;;;;;5004620;28;20085;-84
2022/06/25 10:10:17;;;;;;;1.98;0.70;;;;;;;;;;5040155;28;20032;-85
2022/06/25 10:12:42;;;;;;;3.30;0.60;;;;;;;;;;5021905;28;20052;-86
2022/06/25 10:15:08;;;;;;;2.53;0.70;;;;;;;;;;5004849;28;20044;-84
2022/06/25 10:17:33;;;;;;;3.35;0.73;;;;;;;;;;5005075;28;20024;-91
2022/06/25 10:20:00;;;;;;;1.63;0.52;;;;;;;;;;5021560;28;20028;-87
2022/06/25 10:22:27;;;;;;;1.92;0.43;;;;;;;;;;5021527;28;20029;-86
2022/06/25 10:24:53;;;;;;;3.42;0.65;;;;;;;;;;5005565;28;20486;-86
2022/06/25 10:27:19;;;;;;;1.65;0.50;;;;;;;;;;5004889;28;20035;-87
2022/06/25 10:29:51;;;;;;;3.28;0.55;;;;;;;;;;5020968;28;20049;-86
2022/06/25 10:32:17;;;;;;;2.85;0.70;;;;;;;;;;5020442;28;20406;-85
2022/06/25 10:34:56;;;;;;;1.95;0.65;;;;;;;;;;5020724;28;20033;-84
2022/06/25 10:37:22;;;;;;;2.67;0.60;;;;;;;;;;5037508;28;20116;-85
2022/06/25 10:39:54;;;;;;;1.30;0.45;;;;;;;;;;5020866;28;20040;-84
2022/06/25 10:45:03;;;;;;;2.03;0.43;;;;;;;;;;5054072;28;20049;-90
2022/06/25 10:47:39;;;;;;;2.05;0.40;;;;;;;;;;5054456;28;20066;-90
2022/06/25 10:50:22;;;;;;;3.55;0.52;;;;;;;;;;5021684;28;20040;-89
2022/06/25 10:53:06;;;;;;;1.90;0.70;;;;;;;;;;5054701;28;20036;-88
2022/06/25 10:55:39;;;;;;;2.08;0.50;;;;;;;;;;5037826;28;20503;-87
2022/06/25 10:58:16;;;;;;;2.17;0.22;;;;;;;;;;5021329;28;20036;-89
2022/06/25 11:00:46;;;;;;;1.48;0.40;;;;;;;;;;5038190;28;20063;-90
2022/06/25 11:03:13;;;;;;;1.88;0.30;;;;;;;;;;5037684;28;20174;-90
2022/06/25 11:05:46;;;;;;;1.13;0.43;;;;;;;;;;5014791;28;20039;-89
2022/06/25 11:08:13;;;;;;;1.17;0.57;;;;;;;;;;5025216;28;20578;-89
2022/06/25 11:10:41;;;;;;;2.55;0.40;;;;;;;;;;5041647;28;20128;-88
2022/06/25 11:13:08;;;;;;;1.77;0.30;;;;;;;;;;5025462;28;20478;-89
2022/06/25 11:15:44;;;;;;;0.75;0.20;;;;;;;;;;5024305;28;20569;-89
2022/06/25 11:18:13;;;;;;;2.70;0.98;;;;;;;;;;5040468;28;20024;-90
2022/06/25 11:20:38;;;;;;;1.17;0.40;;;;;;;;;;5026895;28;20119;-90
2022/06/25 11:23:05;;;;;;;1.13;0.30;;;;;;;;;;5045336;28;20127;-90
2022/06/25 11:28:49;;;;;;;1.33;0.35;;;;;;;;;;5049954;28;20063;-90
2022/06/25 11:31:22;;;;;;;1.08;0.30;;;;;;;;;;5032702;28;20040;-90
2022/06/25 11:33:48;;;;;;;1.38;0.32;;;;;;;;;;5044751;28;20032;-89
2022/06/25 11:36:14;;;;;;;0.90;0.25;;;;;;;;;;5044584;28;20047;-89
2022/06/25 11:38:59;;;;;;;3.35;0.60;;;;;;;;;;5027930;28;20036;-91
2022/06/25 11:41:26;;;;;;;2.42;0.35;;;;;;;;;;5046094;28;20101;-90
2022/06/25 11:43:55;;;;;;;3.33;0.45;;;;;;;;;;5026726;28;20109;-89
2022/06/25 11:46:21;;;;;;;0.95;0.38;;;;;;;;;;5050309;28;20035;-90
2022/06/25 11:48:47;;;;;;;2.65;0.63;;;;;;;;;;5064667;28;20032;-88
2022/06/25 11:51:13;;;;;;;2.45;0.70;;;;;;;;;;5064665;28;20124;-88
2022/06/25 11:53:39;;;;;;;1.73;0.40;;;;;;;;;;5063797;28;20031;-88
2022/06/25 11:56:04;;;;;;;1.25;0.30;;;;;;;;;;5047211;28;20512;-87
2022/06/25 11:58:34;;;;;;;2.17;0.60;;;;;;;;;;5064438;28;20062;-89
2022/06/25 12:01:02;;;;;;;1.13;0.50;;;;;;;;;;5031195;28;20465;-91
2022/06/25 12:03:27;;;;;;;0.90;0.47;;;;;;;;;;5007763;28;20040;-86
2022/06/25 12:05:57;;;;;;;1.58;0.30;;;;;;;;;;5007542;28;20157;-88
2022/06/25 12:08:23;;;;;;;1.88;0.47;;;;;;;;;;5039950;28;20093;-88
2022/06/25 12:10:48;;;;;;;1.95;0.40;;;;;;;;;;5006349;28;20037;-88
2022/06/25 12:13:14;;;;;;;1.05;0.32;;;;;;;;;;5023826;28;20039;-88
2022/06/25 12:15:40;;;;;;;1.92;0.43;;;;;;;;;;5007013;28;20426;-87
2022/06/25 12:18:06;;;;;;;2.58;0.98;;;;;;;;;;5007575;28;20028;-87
2022/06/25 12:20:31;;;;;;;5.63;2.30;;;;;;;;;;5024048;28;20498;-88
2022/06/25 12:22:57;;;;;;;6.22;1.95;;;;;;;;;;5021900;28;20045;-85
2022/06/25 12:25:31;;;;;;;3.88;1.38;;;;;;;;;;5026628;28;20083;-84
2022/06/25 12:31:11;;;;;;;2.88;0.77;;;;;;;;;;5050809;22;20076;-86
2022/06/25 12:33:37;;;;;;;2.30;0.95;;;;;;;;;;5000010;28;20048;-86
2022/06/25 12:36:16;;;;;;;4.60;1.23;;;;;;;;;;4968140;28;20034;-87
2022/06/25 12:38:45;;;;;;;2.83;0.80;;;;;;;;;;4990725;28;20411;-86
2022/06/25 12:41:11;;;;;;;2.40;0.70;;;;;;;;;;5019751;28;20037;-86
2022/06/25 12:43:47;;;;;;;1.85;0.45;;;;;;;;;;5003267;28;20037;-85
2022/06/25 12:46:17;;;;;;;1.75;0.57;;;;;;;;;;4987368;28;20510;-86
2022/06/25 12:48:43;;;;;;;1.83;0.70;;;;;;;;;;5003697;28;20063;-86
2022/06/25 12:51:13;;;;;;;3.10;0.65;;;;;;;;;;5003099;28;20499;-85
2022/06/25 12:53:40;;;;;;;2.38;0.60;;;;;;;;;;4987047;28;20510;-85
2022/06/25 12:56:06;;;;;;;1.00;0.25;;;;;;;;;;4986678;28;20079;-85
2022/06/25 12:58:35;;;;;;;1.60;0.50;;;;;;;;;;5002377;28;20041;-85
2022/06/25 13:01:01;;;;;;;2.67;1.02;;;;;;;;;;5012301;28;20041;-85
2022/06/25 13:03:27;;;;;;;2.75;1.10;;;;;;;;;;5019152;28;20043;-85
2022/06/25 13:05:53;;;;;;;2.95;1.35;;;;;;;;;;5002925;28;20037;-85
2022/06/25 13:08:19;;;;;;;4.18;1.83;;;;;;;;;;5002462;28;20039;-86
2022/06/25 13:10:47;;;;;;;5.22;1.48;;;;;;;;;;5018917;28;20033;-85
2022/06/25 13:13:13;;;;;;;2.80;1.10;;;;;;;;;;5002522;28;20037;-86
2022/06/25 13:15:38;;;;;;;3.53;1.13;;;;;;;;;;5002533;28;20063;-85
2022/06/25 13:18:05;;;;;;;2.50;1.10;;;;;;;;;;5002610;28;20063;-85
2022/06/25 13:20:30;;;;;;;4.88;1.05;;;;;;;;;;5002770;28;20033;-85
2022/06/25 13:22:56;;;;;;;3.42;1.00;;;;;;;;;;5002153;28;20079;-85
2022/06/25 13:25:23;;;;;;;3.67;1.13;;;;;;;;;;5001275;28;20028;-86
2022/06/25 13:27:49;;;;;;;5.05;0.80;;;;;;;;;;5017907;28;20129;-86
2022/06/25 13:30:15;;;;;;;1.33;0.38;;;;;;;;;;5018044;28;20044;-86
2022/06/25 13:32:40;;;;;;;1.60;0.60;;;;;;;;;;5002168;28;20033;-85
2022/06/25 13:35:06;;;;;;;2.28;0.50;;;;;;;;;;5001468;28;20041;-85
2022/06/25 13:37:38;;;;;;;2.15;0.60;;;;;;;;;;5001543;28;20029;-85
2022/06/25 13:40:05;;;;;;;2.13;0.50;;;;;;;;;;5002421;28;20052;-85
2022/06/25 13:42:30;;;;;;;1.88;0.40;;;;;;;;;;5017364;28;20124;-87
2022/06/25 13:44:56;;;;;;;1.98;0.63;;;;;;;;;;5017718;28;20038;-85
2022/06/25 13:47:21;;;;;;;1.15;0.40;;;;;;;;;;5021602;28;20025;-85
2022/06/25 13:49:48;;;;;;;2.97;0.30;;;;;;;;;;5038035;28;20048;-85
2022/06/25 13:52:14;;;;;;;1.52;0.30;;;;;;;;;;5055180;28;20033;-87
2022/06/25 13:54:40;;;;;;;4.78;0.80;;;;;;;;;;5021174;28;20058;-88
2022/06/25 13:57:05;;;;;;;4.00;0.50;;;;;;;;;;5038487;28;20566;-90
2022/06/25 13:59:31;;;;;;;6.07;0.93;;;;;;;;;;5021596;28;20067;-88
2022/06/25 14:01:56;;;;;;;28.70;4.00;;;;;;;;;;5021382;28;20036;-85
2022/06/25 14:04:21;;;;;;;25.15;4.00;;;;;;;;;;5038566;28;20491;-87
2022/06/25 14:06:47;;;;;;;27.30;3.00;;;;;;;;;;5021502;28;20028;-87
2022/06/25 14:09:13;;;;;;;20.88;2.80;;;;;;;;;;5004804;28;20410;-88
2022/06/25 14:11:39;;;;;;;18.52;2.17;;;;;;;;;;5021544;28;20033;-88
2022/06/25 14:14:04;;;;;;;18.83;2.65;;;;;;;;;;5021774;28;20036;-89
2022/06/25 14:16:32;;;;;;;18.60;2.85;;;;;;;;;;5021557;28;20422;-89
2022/06/25 14:18:58;;;;;;;14.52;1.75;;;;;;;;;;5012401;28;20037;-88
2022/06/25 14:21:24;;;;;;;13.25;1.75;;;;;;;;;;5001865;28;20040;-88
2022/06/25 14:23:50;;;;;;;6.38;1.45;;;;;;;;;;5017999;28;20112;-88
2022/06/25 14:26:16;;;;;;;7.07;1.20;;;;;;;;;;5001062;28;20080;-89
2022/06/25 14:28:41;;;;;;;7.00;1.10;;;;;;;;;;5017912;28;20121;-88
2022/06/25 14:31:07;;;;;;;8.95;1.30;;;;;;;;;;5000210;28;20488;-89
2022/06/25 14:33:32;;;;;;;4.43;0.77;;;;;;;;;;5018138;28;20071;-87
2022/06/25 14:44:10;;;;;;;5.57;0.63;;;;;;;;;;5022867;28;20021;-89
2022/06/25 14:46:36;;;;;;;3.05;0.68;;;;;;;;;;5037885;28;20039;-88
2022/06/25 14:49:02;;;;;;;4.90;0.60;;;;;;;;;;5019489;28;20040;-88
2022/06/25 14:51:27;;;;;;;2.97;0.60;;;;;;;;;;5020411;28;20029;-88
2022/06/25 14:53:53;;;;;;;2.90;0.68;;;;;;;;;;5021698;28;20147;-88
2022/06/25 14:56:20;;;;;;;3.85;0.35;;;;;;;;;;5041317;28;20142;-88
2022/06/25 14:58:45;;;;;;;2.45;0.40;;;;;;;;;;5025160;28;20104;-88
2022/06/25 15:01:11;;;;;;;2.53;1.02;;;;;;;;;;5010481;28;20037;-88
2022/06/25 15:03:36;;;;;;;2.80;0.47;;;;;;;;;;5005360;28;20041;-88
2022/06/25 15:06:03;;;;;;;3.80;0.77;;;;;;;;;;4989323;28;20045;-88
2022/06/25 15:08:28;;;;;;;1.38;0.50;;;;;;;;;;5005409;28;20091;-88
2022/06/25 15:10:54;;;;;;;1.55;0.52;;;;;;;;;;5021656;28;20021;-88
2022/06/25 15:13:19;;;;;;;5.57;0.70;;;;;;;;;;5003864;28;20045;-88
2022/06/25 15:15:45;;;;;;;1.95;0.43;;;;;;;;;;5005181;28;20033;-89
2022/06/25 15:18:11;;;;;;;0.68;0.30;;;;;;;;;;5005214;28;20036;-88
2022/06/25 15:20:36;;;;;;;5.93;0.70;;;;;;;;;;5021742;28;20108;-88
2022/06/25 15:23:02;;;;;;;1.70;0.32;;;;;;;;;;5004833;28;20033;-88
2022/06/25 15:25:28;;;;;;;1.90;0.50;;;;;;;;;;5005274;28;20411;-88
2022/06/25 15:27:55;;;;;;;2.97;0.55;;;;;;;;;;5005074;28;20040;-88
2022/06/25 15:30:22;;;;;;;1.08;0.40;;;;;;;;;;5003231;28;20067;-88
2022/06/25 15:32:47;;;;;;;1.92;0.43;;;;;;;;;;5020159;28;20041;-88
2022/06/25 15:35:16;;;;;;;1.73;0.50;;;;;;;;;;5004569;28;20517;-88
2022/06/25 15:37:41;;;;;;;2.70;0.70;;;;;;;;;;5020953;28;20059;-88
2022/06/25 15:40:07;;;;;;;1.15;0.60;;;;;;;;;;5004894;28;20543;-88
2022/06/25 15:42:34;;;;;;;1.27;0.50;;;;;;;;;;5004830;28;20495;-88
2022/06/25 15:44:59;;;;;;;1.15;0.47;;;;;;;;;;5014884;28;20105;-88
2022/06/25 15:47:24;;;;;;;0.95;0.43;;;;;;;;;;5024366;28;20033;-88
2022/06/25 15:49:50;;;;;;;2.42;0.40;;;;;;;;;;5023740;28;20085;-88
2022/06/25 15:52:15;;;;;;;1.02;0.30;;;;;;;;;;5024344;28;20037;-88
2022/06/25 15:54:42;;;;;;;0.60;0.30;;;;;;;;;;5024560;28;20054;-88